메인 페이지
METAR-TAF:

METAR-TAF

공항 :

로스토프나도누, 러시아

위도: 47-29-38N, 경도: 039-55-29E, 고도: 65m

현재 날씨관측

예보는 15분 전, 09:00시(UTC)에 발표되었습니다.
남남동4kt풍과 남남서풍을 오가는
온도 0°C
습도 100%
기압 1019 hPa
시정: 6000m
고도 200ft 상공 구름 많음

METAR: URRP 090900Z 15002MPS 100V210 6000 BKN002 00/00 Q1019 R05/290051 TEMPO 0200 FG RMK QBB070 OBST OBSC QFE760/1013

시각: 13:15 (09:15 UTC)

예보

예보는 1 시간 19분 전, 07:56시(UTC)에 발표되었습니다.
예보 대상 시간: 09일 09시부터 10일 09시까지 (UTC)
6kt, 순간 최대 풍속 16kt
시정: 0300m
고도 100ft 상공 흐림
(약한) 결빙, 이슬비, 어는 안개
일시적
09일 09시부터 10일 09시까지 (UTC)
남남동6kt, 순간 최대 풍속 16kt
시정: 1000m
고도 200ft 상공 구름 많음
박무

TAF: URRP 090756Z 0909/1009 09003G08MPS 0300 -FZDZ FZFG OVC001 TEMPO 0909/1009 16003G08MPS 1000 BR BKN002

4,000개 이상의 공항 관측 자료 및 예보 (METAR 및 TAF 보고).

지도상에서 검색 가능한 기상관측소가 노란 점과 빨간 점으로 표시되어 있습니다.

기상관측소 명을 보려면 표시 위로 마우스를 이동하세요.

날씨 관측과 예보를 보려면 클릭하세요.

지도 변경 : 확대하려면 엑스 표시가 있는 녹색 버튼, 축소하려면 빼기 표시가 있는 녹색 버튼, 다음 페이지의 지도를 보려면 녹색 화살표를 클릭하세요.


METAR-TAF: